Excellent — IBBE — position and weather

sailwx.info

Track history (hours):
 
Tides and Currents Weather Stations Pressure Air Temp Water Temp Dewpoint Dewpoint Depression Visibility Wind Speed Wind Dir Waves Ship Positions

Excellent

Last reported at 2018-Apr-17 22:56 UTC. Time now 2018-Apr-25 05:01 UTC.
Position N 35°53' E 014°31'.

Length 202 m; draft 6.5 m.

Type: Ship. MMSI: 247279000.

Date/timePositionNaut miles runAvg speedWind from/ knotsBaromVisibWave heightAir tempDewpointWater temp
2018-Apr-17 22:56N 35°53' E 014°31'0 0.0
2018-Apr-17 14:44N 35°53' E 014°31'0 0.0
2018-Apr-17 14:29N 35°53' E 014°31'0 0.0
2018-Apr-17 13:53N 35°53' E 014°31'  
2018-Apr-14 05:22N 35°54' E 014°31'3 9.0
2018-Apr-14 05:00N 35°56' E 014°34'1017.6
2018-Apr-14 04:28N 36°04' E 014°40'0 1.0
2018-Apr-14 03:57N 36°04' E 014°39'815.2
2018-Apr-14 03:25N 36°11' E 014°44'410.6
2018-Apr-14 03:00N 36°15' E 014°47'814.6
2018-Apr-14 02:26N 36°22' E 014°52'613.2
2018-Apr-14 02:00N 36°26' E 014°57'915.1
2018-Apr-14 01:23N 36°34' E 014°51'511.7
2018-Apr-14 01:00N 36°35' E 014°45'916.4
2018-Apr-14 00:28N 36°38' E 014°35'1920.0
2018-Apr-13 23:33N 36°46' E 014°14'0 0.5
2018-Apr-13 23:24N 36°46' E 014°14'3 7.8
2018-Apr-13 23:00N 36°47' E 014°11'816.0
2018-Apr-13 22:29N 36°51' E 014°01'816.6
2018-Apr-13 22:00N 36°54' E 013°52'37816.6
2018-Apr-12 23:11N 42°22' E 009°49'4020.8
2018-Apr-12 21:16N 43°01' E 009°35'521.0
2018-Apr-12 21:00N 43°06' E 009°33'1121.1
2018-Apr-12 20:30N 43°16' E 009°29'1121.2
2018-Apr-12 20:00N 43°26' E 009°24'1020.6
2018-Apr-12 19:30N 43°36' E 009°19'1020.3
2018-Apr-12 19:00N 43°45' E 009°15'1019.9
2018-Apr-12 18:30N 43°55' E 009°10'1020.1
2018-Apr-12 18:00N 44°04' E 009°06'1020.5
2018-Apr-12 17:30N 44°14' E 009°01'1019.0
2018-Apr-12 17:00N 44°23' E 008°57'2 3.9
2018-Apr-12 16:29N 44°24' E 008°55'0 0.0
2018-Apr-12 15:59N 44°24' E 008°55'0 0.0
2018-Apr-12 15:29N 44°24' E 008°55'0 0.0
2018-Apr-12 14:59N 44°24' E 008°55'0 0.0
2018-Apr-12 14:29N 44°24' E 008°55'0 0.0
2018-Apr-12 13:59N 44°24' E 008°55'0 0.0
2018-Apr-12 13:26N 44°24' E 008°55'0 0.0
2018-Apr-12 12:59N 44°24' E 008°55'0 0.0
2018-Apr-12 12:29N 44°24' E 008°55'0 0.0
2018-Apr-12 11:59N 44°24' E 008°55'0 0.0
2018-Apr-12 11:29N 44°24' E 008°55'0 0.0
2018-Apr-12 10:56N 44°24' E 008°55'0 0.0
2018-Apr-12 10:26N 44°24' E 008°55'0 0.0
2018-Apr-12 09:56N 44°24' E 008°55'0 0.0
2018-Apr-12 09:26N 44°24' E 008°55'0 0.0
2018-Apr-12 08:56N 44°24' E 008°55'0 0.0
2018-Apr-12 08:29N 44°24' E 008°55'0 0.0
2018-Apr-12 07:56N 44°24' E 008°55'0 0.0
2018-Apr-12 07:26N 44°24' E 008°55'0 0.0
2018-Apr-12 06:53N 44°24' E 008°55'0 0.0
2018-Apr-12 06:29N 44°24' E 008°55'0 0.0
2018-Apr-12 05:59N 44°24' E 008°55'0 0.0
2018-Apr-12 05:29N 44°24' E 008°55'0 0.0
2018-Apr-12 04:59N 44°24' E 008°55'0 0.8
2018-Apr-12 04:30N 44°24' E 008°55'4 9.0
2018-Apr-12 04:00N 44°21' E 008°59'1020.2
2018-Apr-12 03:30N 44°13' E 008°49'1021.0
2018-Apr-12 03:00N 44°06' E 008°38'1020.3
2018-Apr-12 02:30N 44°00' E 008°27'3520.5
2018-Apr-12 00:47N 43°39' E 007°48'820.2
2018-Apr-12 00:24N 43°34' E 007°39'820.0
2018-Apr-12 00:00N 43°30' E 007°30'1020.5
2018-Apr-11 23:30N 43°24' E 007°19'1020.8
2018-Apr-11 23:00N 43°17' E 007°08'22620.6
2018-Apr-11 12:02N 41°28' E 002°40'120.7
2018-Apr-11 12:00N 41°28' E 002°39'1020.4
2018-Apr-11 11:30N 41°23' E 002°28'1020.4
2018-Apr-11 11:00N 41°18' E 002°16'5 9.8
2018-Apr-11 10:30N 41°20' E 002°10'1 2.8
2018-Apr-11 09:59N 41°22' E 002°10'0 0.0
2018-Apr-11 09:29N 41°22' E 002°10'0 0.0
2018-Apr-11 08:59N 41°22' E 002°10'0 0.0
2018-Apr-11 08:29N 41°22' E 002°10'0 0.0
2018-Apr-11 07:59N 41°22' E 002°10'0 0.0
2018-Apr-11 07:29N 41°22' E 002°10'0 0.0
2018-Apr-11 06:59N 41°22' E 002°10'0 0.1
2018-Apr-11 06:30N 41°22' E 002°11'3 5.3
2018-Apr-11 06:00N 41°19' E 002°10'3 6.6
2018-Apr-11 05:31N 41°16' E 002°11'3 5.0
2018-Apr-11 05:01N 41°13' E 002°11'916.7
2018-Apr-11 04:30N 41°05' E 002°09'917.3
2018-Apr-11 04:00N 40°58' E 002°02'20217.2
2018-Apr-10 16:17N 38°02' W 000°05'517.8
2018-Apr-10 16:00N 37°58' W 000°09'917.8
2018-Apr-10 15:28N 37°50' W 000°16'817.6
2018-Apr-10 15:00N 37°43' W 000°22'917.6
2018-Apr-10 14:30N 37°36' W 000°28'917.6
2018-Apr-10 14:00N 37°30' W 000°36'1018.1
2018-Apr-10 13:28N 37°23' W 000°45'818.2
2018-Apr-10 13:00N 37°18' W 000°53'917.9
2018-Apr-10 12:30N 37°12' W 001°01'21317.7
2018-Apr-10 00:27N 36°01' W 005°12'1022.6
2018-Apr-10 00:01N 35°58' W 005°24'5 0.7
2018-Apr-09 16:44N 35°56' W 005°30'313.9
2018-Apr-09 16:30N 35°59' W 005°27'816.9
2018-Apr-09 16:01N 36°01' W 005°17'21618.9
2018-Apr-09 04:35N 37°14' W 001°03'320.3
2018-Apr-09 04:27N 37°16' W 001°01'1020.4
2018-Apr-09 03:58N 37°22' W 000°51'1020.6
2018-Apr-09 03:29N 37°29' W 000°42'1020.8
2018-Apr-09 03:01N 37°35' W 000°33'1121.0
2018-Apr-09 02:30N 37°44' W 000°25'1020.8
2018-Apr-09 02:00N 37°53' W 000°18'1020.9
2018-Apr-09 01:30N 38°02' W 000°11'20820.4
2018-Apr-08 15:20N 41°02' E 002°03'719.2
2018-Apr-08 14:59N 41°08' E 002°07'918.3
2018-Apr-08 14:30N 41°16' E 002°11'510.3
2018-Apr-08 14:00N 41°21' E 002°11'0 0.8
2018-Apr-08 13:30N 41°22' E 002°10'0 0.0
2018-Apr-08 13:00N 41°22' E 002°10'0 0.0
2018-Apr-08 12:30N 41°22' E 002°10'0 0.0
2018-Apr-08 11:57N 41°22' E 002°10'0 0.0
2018-Apr-08 11:30N 41°22' E 002°10'0 0.0
2018-Apr-08 11:00N 41°22' E 002°10'0 0.1
2018-Apr-08 10:30N 41°22' E 002°11'3 5.3
2018-Apr-08 10:00N 41°19' E 002°10'3 5.0
2018-Apr-08 09:30N 41°17' E 002°12'1121.7
2018-Apr-08 09:00N 41°23' E 002°24'  
Track history (hours):
 
Tides and Currents Weather Stations Pressure Air Temp Water Temp Dewpoint Dewpoint Depression Visibility Wind Speed Wind Dir Waves Ship Positions

Excellent

Last reported at 2018-Apr-17 22:56 UTC. Time now 2018-Apr-25 05:01 UTC.
Position N 35°53' E 014°31'.

Length 202 m; draft 6.5 m.

Type: Ship. MMSI: 247279000.

Date/timePositionNaut miles runAvg speedWind from/ knotsBaromVisibWave heightAir tempDewpointWater temp
2018-Apr-17 22:56N 35°53' E 014°31'0 0.0
2018-Apr-17 14:44N 35°53' E 014°31'0 0.0
2018-Apr-17 14:29N 35°53' E 014°31'0 0.0
2018-Apr-17 13:53N 35°53' E 014°31'  
2018-Apr-14 05:22N 35°54' E 014°31'3 9.0
2018-Apr-14 05:00N 35°56' E 014°34'1017.6
2018-Apr-14 04:28N 36°04' E 014°40'0 1.0
2018-Apr-14 03:57N 36°04' E 014°39'815.2
2018-Apr-14 03:25N 36°11' E 014°44'410.6
2018-Apr-14 03:00N 36°15' E 014°47'814.6
2018-Apr-14 02:26N 36°22' E 014°52'613.2
2018-Apr-14 02:00N 36°26' E 014°57'915.1
2018-Apr-14 01:23N 36°34' E 014°51'511.7
2018-Apr-14 01:00N 36°35' E 014°45'916.4
2018-Apr-14 00:28N 36°38' E 014°35'1920.0
2018-Apr-13 23:33N 36°46' E 014°14'0 0.5
2018-Apr-13 23:24N 36°46' E 014°14'3 7.8
2018-Apr-13 23:00N 36°47' E 014°11'816.0
2018-Apr-13 22:29N 36°51' E 014°01'816.6
2018-Apr-13 22:00N 36°54' E 013°52'37816.6
2018-Apr-12 23:11N 42°22' E 009°49'4020.8
2018-Apr-12 21:16N 43°01' E 009°35'521.0
2018-Apr-12 21:00N 43°06' E 009°33'1121.1
2018-Apr-12 20:30N 43°16' E 009°29'1121.2
2018-Apr-12 20:00N 43°26' E 009°24'1020.6
2018-Apr-12 19:30N 43°36' E 009°19'1020.3
2018-Apr-12 19:00N 43°45' E 009°15'1019.9
2018-Apr-12 18:30N 43°55' E 009°10'1020.1
2018-Apr-12 18:00N 44°04' E 009°06'1020.5
2018-Apr-12 17:30N 44°14' E 009°01'1019.0
2018-Apr-12 17:00N 44°23' E 008°57'2 3.9
2018-Apr-12 16:29N 44°24' E 008°55'0 0.0
2018-Apr-12 15:59N 44°24' E 008°55'0 0.0
2018-Apr-12 15:29N 44°24' E 008°55'0 0.0
2018-Apr-12 14:59N 44°24' E 008°55'0 0.0
2018-Apr-12 14:29N 44°24' E 008°55'0 0.0
2018-Apr-12 13:59N 44°24' E 008°55'0 0.0
2018-Apr-12 13:26N 44°24' E 008°55'0 0.0
2018-Apr-12 12:59N 44°24' E 008°55'0 0.0
2018-Apr-12 12:29N 44°24' E 008°55'0 0.0
2018-Apr-12 11:59N 44°24' E 008°55'0 0.0
2018-Apr-12 11:29N 44°24' E 008°55'0 0.0
2018-Apr-12 10:56N 44°24' E 008°55'0 0.0
2018-Apr-12 10:26N 44°24' E 008°55'0 0.0
2018-Apr-12 09:56N 44°24' E 008°55'0 0.0
2018-Apr-12 09:26N 44°24' E 008°55'0 0.0
2018-Apr-12 08:56N 44°24' E 008°55'0 0.0
2018-Apr-12 08:29N 44°24' E 008°55'0 0.0
2018-Apr-12 07:56N 44°24' E 008°55'0 0.0
2018-Apr-12 07:26N 44°24' E 008°55'0 0.0
2018-Apr-12 06:53N 44°24' E 008°55'0 0.0
2018-Apr-12 06:29N 44°24' E 008°55'0 0.0
2018-Apr-12 05:59N 44°24' E 008°55'0 0.0
2018-Apr-12 05:29N 44°24' E 008°55'0 0.0
2018-Apr-12 04:59N 44°24' E 008°55'0 0.8
2018-Apr-12 04:30N 44°24' E 008°55'4 9.0
2018-Apr-12 04:00N 44°21' E 008°59'1020.2
2018-Apr-12 03:30N 44°13' E 008°49'1021.0
2018-Apr-12 03:00N 44°06' E 008°38'1020.3
2018-Apr-12 02:30N 44°00' E 008°27'3520.5
2018-Apr-12 00:47N 43°39' E 007°48'820.2
2018-Apr-12 00:24N 43°34' E 007°39'820.0
2018-Apr-12 00:00N 43°30' E 007°30'1020.5
2018-Apr-11 23:30N 43°24' E 007°19'1020.8
2018-Apr-11 23:00N 43°17' E 007°08'22620.6
2018-Apr-11 12:02N 41°28' E 002°40'120.7
2018-Apr-11 12:00N 41°28' E 002°39'1020.4
2018-Apr-11 11:30N 41°23' E 002°28'1020.4
2018-Apr-11 11:00N 41°18' E 002°16'5 9.8
2018-Apr-11 10:30N 41°20' E 002°10'1 2.8
2018-Apr-11 09:59N 41°22' E 002°10'0 0.0
2018-Apr-11 09:29N 41°22' E 002°10'0 0.0
2018-Apr-11 08:59N 41°22' E 002°10'0 0.0
2018-Apr-11 08:29N 41°22' E 002°10'0 0.0
2018-Apr-11 07:59N 41°22' E 002°10'0 0.0
2018-Apr-11 07:29N 41°22' E 002°10'0 0.0
2018-Apr-11 06:59N 41°22' E 002°10'0 0.1
2018-Apr-11 06:30N 41°22' E 002°11'3 5.3
2018-Apr-11 06:00N 41°19' E 002°10'3 6.6
2018-Apr-11 05:31N 41°16' E 002°11'3 5.0
2018-Apr-11 05:01N 41°13' E 002°11'916.7
2018-Apr-11 04:30N 41°05' E 002°09'917.3
2018-Apr-11 04:00N 40°58' E 002°02'20217.2
2018-Apr-10 16:17N 38°02' W 000°05'517.8
2018-Apr-10 16:00N 37°58' W 000°09'917.8
2018-Apr-10 15:28N 37°50' W 000°16'817.6
2018-Apr-10 15:00N 37°43' W 000°22'917.6
2018-Apr-10 14:30N 37°36' W 000°28'917.6
2018-Apr-10 14:00N 37°30' W 000°36'1018.1
2018-Apr-10 13:28N 37°23' W 000°45'818.2
2018-Apr-10 13:00N 37°18' W 000°53'917.9
2018-Apr-10 12:30N 37°12' W 001°01'21317.7
2018-Apr-10 00:27N 36°01' W 005°12'1022.6
2018-Apr-10 00:01N 35°58' W 005°24'5 0.7
2018-Apr-09 16:44N 35°56' W 005°30'313.9
2018-Apr-09 16:30N 35°59' W 005°27'816.9
2018-Apr-09 16:01N 36°01' W 005°17'21618.9
2018-Apr-09 04:35N 37°14' W 001°03'320.3
2018-Apr-09 04:27N 37°16' W 001°01'1020.4
2018-Apr-09 03:58N 37°22' W 000°51'1020.6
2018-Apr-09 03:29N 37°29' W 000°42'1020.8
2018-Apr-09 03:01N 37°35' W 000°33'1121.0
2018-Apr-09 02:30N 37°44' W 000°25'1020.8
2018-Apr-09 02:00N 37°53' W 000°18'1020.9
2018-Apr-09 01:30N 38°02' W 000°11'20820.4
2018-Apr-08 15:20N 41°02' E 002°03'719.2
2018-Apr-08 14:59N 41°08' E 002°07'918.3
2018-Apr-08 14:30N 41°16' E 002°11'510.3
2018-Apr-08 14:00N 41°21' E 002°11'0 0.8
2018-Apr-08 13:30N 41°22' E 002°10'0 0.0
2018-Apr-08 13:00N 41°22' E 002°10'0 0.0
2018-Apr-08 12:30N 41°22' E 002°10'0 0.0
2018-Apr-08 11:57N 41°22' E 002°10'0 0.0
2018-Apr-08 11:30N 41°22' E 002°10'0 0.0
2018-Apr-08 11:00N 41°22' E 002°10'0 0.1
2018-Apr-08 10:30N 41°22' E 002°11'3 5.3
2018-Apr-08 10:00N 41°19' E 002°10'3 5.0
2018-Apr-08 09:30N 41°17' E 002°12'1121.7
2018-Apr-08 09:00N 41°23' E 002°24'  

Dump ship's entire track history